sensor_id;sensor_type;location;lat;lon;timestamp;P1;durP1;ratioP1;P2;durP2;ratioP2
60969;SDS011;46841;48.938;9.502;2023-04-06T00:02:02;16.70;;;11.23;;
60969;SDS011;46841;48.938;9.502;2023-04-06T00:04:27;17.40;;;10.98;;
60969;SDS011;46841;48.938;9.502;2023-04-06T00:06:53;23.63;;;12.00;;
60969;SDS011;46841;48.938;9.502;2023-04-06T00:09:18;22.23;;;12.60;;
60969;SDS011;46841;48.938;9.502;2023-04-06T00:11:43;18.88;;;11.55;;
60969;SDS011;46841;48.938;9.502;2023-04-06T00:14:09;16.67;;;10.70;;
60969;SDS011;46841;48.938;9.502;2023-04-06T00:16:34;16.27;;;10.88;;
60969;SDS011;46841;48.938;9.502;2023-04-06T00:19:00;17.98;;;10.38;;
60969;SDS011;46841;48.938;9.502;2023-04-06T00:21:25;16.23;;;10.52;;
60969;SDS011;46841;48.938;9.502;2023-04-06T00:23:51;15.50;;;10.35;;
60969;SDS011;46841;48.938;9.502;2023-04-06T00:26:16;15.68;;;10.15;;
60969;SDS011;46841;48.938;9.502;2023-04-06T00:28:44;17.58;;;10.25;;
60969;SDS011;46841;48.938;9.502;2023-04-06T00:31:09;13.98;;;9.95;;
60969;SDS011;46841;48.938;9.502;2023-04-06T00:33:35;15.88;;;10.40;;
60969;SDS011;46841;48.938;9.502;2023-04-06T00:36:00;17.25;;;10.52;;
60969;SDS011;46841;48.938;9.502;2023-04-06T00:38:26;16.02;;;10.70;;
60969;SDS011;46841;48.938;9.502;2023-04-06T00:40:51;16.85;;;9.82;;
60969;SDS011;46841;48.938;9.502;2023-04-06T00:43:17;15.20;;;9.68;;
60969;SDS011;46841;48.938;9.502;2023-04-06T00:45:43;20.10;;;11.37;;
60969;SDS011;46841;48.938;9.502;2023-04-06T00:48:09;15.43;;;9.63;;
60969;SDS011;46841;48.938;9.502;2023-04-06T00:50:35;17.40;;;10.45;;
60969;SDS011;46841;48.938;9.502;2023-04-06T00:53:00;13.88;;;9.38;;
60969;SDS011;46841;48.938;9.502;2023-04-06T00:55:27;15.98;;;10.00;;
60969;SDS011;46841;48.938;9.502;2023-04-06T00:57:53;15.05;;;9.18;;
60969;SDS011;46841;48.938;9.502;2023-04-06T01:00:18;19.90;;;10.98;;
60969;SDS011;46841;48.938;9.502;2023-04-06T01:02:45;22.85;;;11.45;;
60969;SDS011;46841;48.938;9.502;2023-04-06T01:05:13;25.00;;;11.32;;
60969;SDS011;46841;48.938;9.502;2023-04-06T01:07:47;20.42;;;10.43;;
60969;SDS011;46841;48.938;9.502;2023-04-06T01:10:27;19.50;;;10.63;;
60969;SDS011;46841;48.938;9.502;2023-04-06T01:13:16;18.73;;;10.30;;
60969;SDS011;46841;48.938;9.502;2023-04-06T01:16:07;18.15;;;10.00;;
60969;SDS011;46841;48.938;9.502;2023-04-06T01:18:48;19.52;;;9.77;;
60969;SDS011;46841;48.938;9.502;2023-04-06T01:21:24;16.27;;;8.90;;
60969;SDS011;46841;48.938;9.502;2023-04-06T01:24:16;17.83;;;10.35;;
60969;SDS011;46841;48.938;9.502;2023-04-06T01:27:00;16.17;;;10.43;;
60969;SDS011;46841;48.938;9.502;2023-04-06T01:29:33;15.88;;;9.57;;
60969;SDS011;46841;48.938;9.502;2023-04-06T01:32:01;19.50;;;10.43;;
60969;SDS011;46841;48.938;9.502;2023-04-06T01:34:28;15.18;;;8.98;;
60969;SDS011;46841;48.938;9.502;2023-04-06T01:36:56;14.25;;;9.07;;
60969;SDS011;46841;48.938;9.502;2023-04-06T01:39:26;16.05;;;9.02;;
60969;SDS011;46841;48.938;9.502;2023-04-06T01:41:51;13.18;;;8.82;;
60969;SDS011;46841;48.938;9.502;2023-04-06T01:44:19;16.55;;;9.70;;
60969;SDS011;46841;48.938;9.502;2023-04-06T01:46:50;16.85;;;9.80;;
60969;SDS011;46841;48.938;9.502;2023-04-06T01:49:18;17.60;;;10.70;;
60969;SDS011;46841;48.938;9.502;2023-04-06T01:51:47;17.52;;;10.95;;
60969;SDS011;46841;48.938;9.502;2023-04-06T01:54:13;16.02;;;10.30;;
60969;SDS011;46841;48.938;9.502;2023-04-06T01:57:04;18.00;;;10.82;;
60969;SDS011;46841;48.938;9.502;2023-04-06T01:59:40;15.90;;;10.38;;
60969;SDS011;46841;48.938;9.502;2023-04-06T02:02:12;17.83;;;10.50;;
60969;SDS011;46841;48.938;9.502;2023-04-06T02:07:09;14.27;;;8.85;;
60969;SDS011;46841;48.938;9.502;2023-04-06T02:09:35;14.73;;;9.48;;
60969;SDS011;46841;48.938;9.502;2023-04-06T02:12:01;16.38;;;9.70;;
60969;SDS011;46841;48.938;9.502;2023-04-06T02:14:29;13.75;;;9.50;;
60969;SDS011;46841;48.938;9.502;2023-04-06T02:16:57;17.75;;;9.70;;
60969;SDS011;46841;48.938;9.502;2023-04-06T02:19:23;16.13;;;9.70;;
60969;SDS011;46841;48.938;9.502;2023-04-06T02:21:48;18.13;;;10.90;;
60969;SDS011;46841;48.938;9.502;2023-04-06T02:24:14;18.65;;;11.20;;
60969;SDS011;46841;48.938;9.502;2023-04-06T02:26:39;19.92;;;10.95;;
60969;SDS011;46841;48.938;9.502;2023-04-06T02:29:05;20.42;;;13.30;;
60969;SDS011;46841;48.938;9.502;2023-04-06T02:31:31;20.42;;;11.25;;
60969;SDS011;46841;48.938;9.502;2023-04-06T02:33:57;22.50;;;12.20;;
60969;SDS011;46841;48.938;9.502;2023-04-06T02:36:23;15.10;;;10.32;;
60969;SDS011;46841;48.938;9.502;2023-04-06T02:38:48;17.58;;;10.57;;
60969;SDS011;46841;48.938;9.502;2023-04-06T02:41:14;23.27;;;12.45;;
60969;SDS011;46841;48.938;9.502;2023-04-06T02:43:39;20.00;;;11.73;;
60969;SDS011;46841;48.938;9.502;2023-04-06T02:46:13;21.58;;;12.23;;
60969;SDS011;46841;48.938;9.502;2023-04-06T02:48:38;22.70;;;11.32;;
60969;SDS011;46841;48.938;9.502;2023-04-06T02:51:04;20.52;;;12.05;;
60969;SDS011;46841;48.938;9.502;2023-04-06T02:53:30;17.33;;;11.27;;
60969;SDS011;46841;48.938;9.502;2023-04-06T02:55:55;18.75;;;11.00;;
60969;SDS011;46841;48.938;9.502;2023-04-06T02:58:23;18.17;;;11.23;;
60969;SDS011;46841;48.938;9.502;2023-04-06T03:00:53;22.73;;;11.73;;
60969;SDS011;46841;48.938;9.502;2023-04-06T03:03:18;17.83;;;11.48;;
60969;SDS011;46841;48.938;9.502;2023-04-06T03:05:44;16.87;;;11.07;;
60969;SDS011;46841;48.938;9.502;2023-04-06T03:08:10;20.63;;;12.23;;
60969;SDS011;46841;48.938;9.502;2023-04-06T03:10:42;18.83;;;11.13;;
60969;SDS011;46841;48.938;9.502;2023-04-06T03:13:07;20.33;;;10.88;;
60969;SDS011;46841;48.938;9.502;2023-04-06T03:15:53;22.15;;;11.30;;
60969;SDS011;46841;48.938;9.502;2023-04-06T03:18:23;18.30;;;11.20;;
60969;SDS011;46841;48.938;9.502;2023-04-06T03:20:50;19.67;;;12.30;;
60969;SDS011;46841;48.938;9.502;2023-04-06T03:23:18;16.80;;;10.52;;
60969;SDS011;46841;48.938;9.502;2023-04-06T03:25:46;18.67;;;11.25;;
60969;SDS011;46841;48.938;9.502;2023-04-06T03:28:15;18.20;;;10.60;;
60969;SDS011;46841;48.938;9.502;2023-04-06T03:30:51;19.55;;;11.30;;
60969;SDS011;46841;48.938;9.502;2023-04-06T03:33:23;16.05;;;10.65;;
60969;SDS011;46841;48.938;9.502;2023-04-06T03:35:53;21.50;;;11.85;;
60969;SDS011;46841;48.938;9.502;2023-04-06T03:38:19;19.02;;;11.38;;
60969;SDS011;46841;48.938;9.502;2023-04-06T03:40:44;20.33;;;12.20;;
60969;SDS011;46841;48.938;9.502;2023-04-06T03:43:10;21.73;;;11.40;;
60969;SDS011;46841;48.938;9.502;2023-04-06T03:45:37;22.98;;;13.05;;
60969;SDS011;46841;48.938;9.502;2023-04-06T03:48:03;22.15;;;12.10;;
60969;SDS011;46841;48.938;9.502;2023-04-06T03:50:30;17.33;;;11.48;;
60969;SDS011;46841;48.938;9.502;2023-04-06T03:52:56;16.38;;;10.77;;
60969;SDS011;46841;48.938;9.502;2023-04-06T03:55:21;17.65;;;10.80;;
60969;SDS011;46841;48.938;9.502;2023-04-06T03:57:46;20.23;;;11.07;;
60969;SDS011;46841;48.938;9.502;2023-04-06T04:00:12;18.80;;;11.88;;
60969;SDS011;46841;48.938;9.502;2023-04-06T04:02:40;23.48;;;11.75;;
60969;SDS011;46841;48.938;9.502;2023-04-06T04:05:05;18.30;;;11.30;;
60969;SDS011;46841;48.938;9.502;2023-04-06T04:07:31;17.48;;;10.95;;
60969;SDS011;46841;48.938;9.502;2023-04-06T04:09:56;17.98;;;10.88;;
60969;SDS011;46841;48.938;9.502;2023-04-06T04:12:21;23.00;;;11.02;;
60969;SDS011;46841;48.938;9.502;2023-04-06T04:14:47;16.35;;;10.23;;
60969;SDS011;46841;48.938;9.502;2023-04-06T04:17:12;18.13;;;12.02;;
60969;SDS011;46841;48.938;9.502;2023-04-06T04:19:37;19.88;;;11.15;;
60969;SDS011;46841;48.938;9.502;2023-04-06T04:22:03;23.15;;;11.98;;
60969;SDS011;46841;48.938;9.502;2023-04-06T04:24:32;29.05;;;13.18;;
60969;SDS011;46841;48.938;9.502;2023-04-06T04:26:59;22.85;;;13.07;;
60969;SDS011;46841;48.938;9.502;2023-04-06T04:29:26;24.05;;;12.63;;
60969;SDS011;46841;48.938;9.502;2023-04-06T04:31:53;26.20;;;13.63;;
60969;SDS011;46841;48.938;9.502;2023-04-06T04:34:18;22.15;;;12.65;;
60969;SDS011;46841;48.938;9.502;2023-04-06T04:36:50;25.30;;;13.18;;
60969;SDS011;46841;48.938;9.502;2023-04-06T04:39:22;23.42;;;13.63;;
60969;SDS011;46841;48.938;9.502;2023-04-06T04:41:56;22.35;;;12.30;;
60969;SDS011;46841;48.938;9.502;2023-04-06T04:44:21;23.05;;;13.27;;
60969;SDS011;46841;48.938;9.502;2023-04-06T04:46:48;23.10;;;12.45;;
60969;SDS011;46841;48.938;9.502;2023-04-06T04:49:16;23.60;;;12.30;;
60969;SDS011;46841;48.938;9.502;2023-04-06T04:51:42;20.83;;;11.85;;
60969;SDS011;46841;48.938;9.502;2023-04-06T04:54:11;20.77;;;12.30;;
60969;SDS011;46841;48.938;9.502;2023-04-06T04:56:36;23.52;;;12.25;;
60969;SDS011;46841;48.938;9.502;2023-04-06T04:59:25;19.27;;;11.23;;
60969;SDS011;46841;48.938;9.502;2023-04-06T05:01:59;22.60;;;11.65;;
60969;SDS011;46841;48.938;9.502;2023-04-06T05:04:34;23.95;;;11.93;;
60969;SDS011;46841;48.938;9.502;2023-04-06T05:07:06;20.25;;;12.57;;
60969;SDS011;46841;48.938;9.502;2023-04-06T05:09:32;20.30;;;12.00;;
60969;SDS011;46841;48.938;9.502;2023-04-06T05:11:58;21.25;;;12.13;;
60969;SDS011;46841;48.938;9.502;2023-04-06T05:14:25;20.57;;;12.23;;
60969;SDS011;46841;48.938;9.502;2023-04-06T05:16:51;20.75;;;11.70;;
60969;SDS011;46841;48.938;9.502;2023-04-06T05:19:16;24.20;;;11.98;;
60969;SDS011;46841;48.938;9.502;2023-04-06T05:21:44;21.17;;;11.75;;
60969;SDS011;46841;48.938;9.502;2023-04-06T05:24:09;21.25;;;11.80;;
60969;SDS011;46841;48.938;9.502;2023-04-06T05:26:36;19.93;;;13.03;;
60969;SDS011;46841;48.938;9.502;2023-04-06T05:29:06;23.35;;;13.20;;
60969;SDS011;46841;48.938;9.502;2023-04-06T05:31:35;69.95;;;34.53;;
60969;SDS011;46841;48.938;9.502;2023-04-06T05:34:00;57.42;;;25.63;;
60969;SDS011;46841;48.938;9.502;2023-04-06T05:36:30;46.60;;;20.95;;
60969;SDS011;46841;48.938;9.502;2023-04-06T05:38:58;41.33;;;19.88;;
60969;SDS011;46841;48.938;9.502;2023-04-06T05:41:43;36.50;;;16.83;;
60969;SDS011;46841;48.938;9.502;2023-04-06T05:44:10;25.52;;;14.20;;
60969;SDS011;46841;48.938;9.502;2023-04-06T05:46:36;25.27;;;14.77;;
60969;SDS011;46841;48.938;9.502;2023-04-06T05:49:03;26.88;;;15.60;;
60969;SDS011;46841;48.938;9.502;2023-04-06T05:51:31;30.48;;;15.65;;
60969;SDS011;46841;48.938;9.502;2023-04-06T05:53:56;30.27;;;14.85;;
60969;SDS011;46841;48.938;9.502;2023-04-06T05:56:23;26.70;;;15.73;;
60969;SDS011;46841;48.938;9.502;2023-04-06T05:58:49;28.35;;;15.30;;
60969;SDS011;46841;48.938;9.502;2023-04-06T06:01:20;28.35;;;16.85;;
60969;SDS011;46841;48.938;9.502;2023-04-06T06:03:46;28.48;;;18.23;;
60969;SDS011;46841;48.938;9.502;2023-04-06T06:06:13;31.42;;;17.05;;
60969;SDS011;46841;48.938;9.502;2023-04-06T06:09:04;33.22;;;16.70;;
60969;SDS011;46841;48.938;9.502;2023-04-06T06:11:33;28.65;;;15.40;;
60969;SDS011;46841;48.938;9.502;2023-04-06T06:13:59;26.17;;;15.70;;
60969;SDS011;46841;48.938;9.502;2023-04-06T06:16:25;26.65;;;16.65;;
60969;SDS011;46841;48.938;9.502;2023-04-06T06:18:50;26.50;;;17.48;;
60969;SDS011;46841;48.938;9.502;2023-04-06T06:21:16;27.60;;;16.90;;
60969;SDS011;46841;48.938;9.502;2023-04-06T06:23:42;32.80;;;18.73;;
60969;SDS011;46841;48.938;9.502;2023-04-06T06:26:11;30.58;;;17.77;;
60969;SDS011;46841;48.938;9.502;2023-04-06T06:28:36;37.38;;;18.83;;
60969;SDS011;46841;48.938;9.502;2023-04-06T06:31:02;37.60;;;20.65;;
60969;SDS011;46841;48.938;9.502;2023-04-06T06:33:28;33.33;;;20.00;;
60969;SDS011;46841;48.938;9.502;2023-04-06T06:35:55;36.30;;;19.43;;
60969;SDS011;46841;48.938;9.502;2023-04-06T06:38:20;36.10;;;19.08;;
60969;SDS011;46841;48.938;9.502;2023-04-06T06:40:46;38.30;;;20.08;;
60969;SDS011;46841;48.938;9.502;2023-04-06T06:43:12;32.75;;;19.60;;
60969;SDS011;46841;48.938;9.502;2023-04-06T06:45:53;31.27;;;17.75;;
60969;SDS011;46841;48.938;9.502;2023-04-06T06:48:18;31.67;;;17.17;;
60969;SDS011;46841;48.938;9.502;2023-04-06T06:50:44;29.58;;;17.60;;
60969;SDS011;46841;48.938;9.502;2023-04-06T06:53:11;34.35;;;19.60;;
60969;SDS011;46841;48.938;9.502;2023-04-06T06:55:36;38.17;;;19.42;;
60969;SDS011;46841;48.938;9.502;2023-04-06T06:58:02;32.92;;;17.73;;
60969;SDS011;46841;48.938;9.502;2023-04-06T07:00:27;30.88;;;17.35;;
60969;SDS011;46841;48.938;9.502;2023-04-06T07:02:53;31.20;;;17.40;;
60969;SDS011;46841;48.938;9.502;2023-04-06T07:05:19;27.52;;;16.33;;
60969;SDS011;46841;48.938;9.502;2023-04-06T07:07:44;27.77;;;14.90;;
60969;SDS011;46841;48.938;9.502;2023-04-06T07:10:10;24.67;;;14.68;;
60969;SDS011;46841;48.938;9.502;2023-04-06T07:12:37;25.73;;;15.20;;
60969;SDS011;46841;48.938;9.502;2023-04-06T07:15:02;24.73;;;14.65;;
60969;SDS011;46841;48.938;9.502;2023-04-06T07:17:27;28.30;;;14.65;;
60969;SDS011;46841;48.938;9.502;2023-04-06T07:19:53;24.17;;;14.57;;
60969;SDS011;46841;48.938;9.502;2023-04-06T07:22:18;34.40;;;19.30;;
60969;SDS011;46841;48.938;9.502;2023-04-06T07:24:44;32.00;;;18.83;;
60969;SDS011;46841;48.938;9.502;2023-04-06T07:27:10;29.95;;;16.35;;
60969;SDS011;46841;48.938;9.502;2023-04-06T07:29:35;28.13;;;15.98;;
60969;SDS011;46841;48.938;9.502;2023-04-06T07:32:00;26.08;;;15.15;;
60969;SDS011;46841;48.938;9.502;2023-04-06T07:34:26;26.15;;;14.82;;
60969;SDS011;46841;48.938;9.502;2023-04-06T07:36:51;24.45;;;12.95;;
60969;SDS011;46841;48.938;9.502;2023-04-06T07:39:19;23.33;;;12.25;;
60969;SDS011;46841;48.938;9.502;2023-04-06T07:41:45;23.73;;;12.43;;
60969;SDS011;46841;48.938;9.502;2023-04-06T07:44:10;21.25;;;11.18;;
60969;SDS011;46841;48.938;9.502;2023-04-06T07:46:36;18.83;;;10.80;;
60969;SDS011;46841;48.938;9.502;2023-04-06T07:49:02;20.40;;;11.75;;
60969;SDS011;46841;48.938;9.502;2023-04-06T07:51:30;18.90;;;11.40;;
60969;SDS011;46841;48.938;9.502;2023-04-06T07:53:56;17.50;;;9.52;;
60969;SDS011;46841;48.938;9.502;2023-04-06T07:56:21;18.27;;;10.55;;
60969;SDS011;46841;48.938;9.502;2023-04-06T07:58:47;22.08;;;11.68;;
60969;SDS011;46841;48.938;9.502;2023-04-06T08:01:12;19.60;;;10.90;;
60969;SDS011;46841;48.938;9.502;2023-04-06T08:03:38;20.30;;;11.23;;
60969;SDS011;46841;48.938;9.502;2023-04-06T08:06:03;20.60;;;11.15;;
60969;SDS011;46841;48.938;9.502;2023-04-06T08:08:29;21.05;;;10.82;;
60969;SDS011;46841;48.938;9.502;2023-04-06T08:10:54;19.92;;;10.80;;
60969;SDS011;46841;48.938;9.502;2023-04-06T08:13:20;21.52;;;10.85;;
60969;SDS011;46841;48.938;9.502;2023-04-06T08:15:45;19.00;;;11.13;;
60969;SDS011;46841;48.938;9.502;2023-04-06T08:18:11;19.02;;;10.82;;
60969;SDS011;46841;48.938;9.502;2023-04-06T08:20:36;19.20;;;10.57;;
60969;SDS011;46841;48.938;9.502;2023-04-06T08:23:02;21.30;;;11.82;;
60969;SDS011;46841;48.938;9.502;2023-04-06T08:25:27;18.73;;;9.85;;
60969;SDS011;46841;48.938;9.502;2023-04-06T08:27:52;19.75;;;10.82;;
60969;SDS011;46841;48.938;9.502;2023-04-06T08:30:18;21.48;;;11.27;;
60969;SDS011;46841;48.938;9.502;2023-04-06T08:32:44;21.25;;;11.38;;
60969;SDS011;46841;48.938;9.502;2023-04-06T08:35:10;22.40;;;10.15;;
60969;SDS011;46841;48.938;9.502;2023-04-06T08:37:35;20.75;;;10.73;;
60969;SDS011;46841;48.938;9.502;2023-04-06T08:40:00;18.63;;;10.23;;
60969;SDS011;46841;48.938;9.502;2023-04-06T08:42:26;16.33;;;10.25;;
60969;SDS011;46841;48.938;9.502;2023-04-06T08:44:54;16.75;;;10.88;;
60969;SDS011;46841;48.938;9.502;2023-04-06T08:47:20;18.35;;;10.13;;
60969;SDS011;46841;48.938;9.502;2023-04-06T08:49:46;18.52;;;10.60;;
60969;SDS011;46841;48.938;9.502;2023-04-06T08:52:11;18.75;;;10.43;;
60969;SDS011;46841;48.938;9.502;2023-04-06T08:54:37;18.30;;;10.60;;
60969;SDS011;46841;48.938;9.502;2023-04-06T08:57:03;16.27;;;10.27;;
60969;SDS011;46841;48.938;9.502;2023-04-06T08:59:30;26.13;;;13.37;;
60969;SDS011;46841;48.938;9.502;2023-04-06T09:01:56;18.13;;;11.85;;
60969;SDS011;46841;48.938;9.502;2023-04-06T09:04:21;20.40;;;10.68;;
60969;SDS011;46841;48.938;9.502;2023-04-06T09:06:47;24.30;;;11.25;;
60969;SDS011;46841;48.938;9.502;2023-04-06T09:09:12;21.02;;;10.52;;
60969;SDS011;46841;48.938;9.502;2023-04-06T09:11:56;20.13;;;11.57;;
60969;SDS011;46841;48.938;9.502;2023-04-06T09:14:33;19.05;;;11.05;;
60969;SDS011;46841;48.938;9.502;2023-04-06T09:16:59;18.52;;;11.23;;
60969;SDS011;46841;48.938;9.502;2023-04-06T09:19:25;20.75;;;10.93;;
60969;SDS011;46841;48.938;9.502;2023-04-06T09:22:00;24.02;;;11.15;;
60969;SDS011;46841;48.938;9.502;2023-04-06T09:24:25;19.52;;;10.80;;
60969;SDS011;46841;48.938;9.502;2023-04-06T09:26:51;18.17;;;10.10;;
60969;SDS011;46841;48.938;9.502;2023-04-06T09:29:23;17.52;;;10.25;;
60969;SDS011;46841;48.938;9.502;2023-04-06T09:31:49;17.20;;;9.80;;
60969;SDS011;46841;48.938;9.502;2023-04-06T09:34:21;19.27;;;10.55;;
60969;SDS011;46841;48.938;9.502;2023-04-06T09:36:47;17.65;;;9.63;;
60969;SDS011;46841;48.938;9.502;2023-04-06T09:39:13;17.00;;;10.05;;
60969;SDS011;46841;48.938;9.502;2023-04-06T09:41:38;15.10;;;9.48;;
60969;SDS011;46841;48.938;9.502;2023-04-06T09:44:08;16.30;;;9.13;;
60969;SDS011;46841;48.938;9.502;2023-04-06T09:46:34;15.25;;;8.63;;
60969;SDS011;46841;48.938;9.502;2023-04-06T09:49:03;15.68;;;9.15;;
60969;SDS011;46841;48.938;9.502;2023-04-06T09:54:23;16.20;;;9.05;;
60969;SDS011;46841;48.938;9.502;2023-04-06T10:01:53;14.18;;;8.77;;
60969;SDS011;46841;48.938;9.502;2023-04-06T10:04:32;16.83;;;8.40;;
60969;SDS011;46841;48.938;9.502;2023-04-06T10:07:01;13.63;;;7.40;;
60969;SDS011;46841;48.938;9.502;2023-04-06T10:09:28;12.95;;;6.95;;
60969;SDS011;46841;48.938;9.502;2023-04-06T10:12:01;11.75;;;6.78;;
60969;SDS011;46841;48.938;9.502;2023-04-06T10:14:27;12.37;;;7.30;;
60969;SDS011;46841;48.938;9.502;2023-04-06T10:16:52;15.80;;;8.32;;
60969;SDS011;46841;48.938;9.502;2023-04-06T10:19:18;13.80;;;8.48;;
60969;SDS011;46841;48.938;9.502;2023-04-06T10:21:47;12.75;;;8.40;;
60969;SDS011;46841;48.938;9.502;2023-04-06T10:24:15;19.98;;;9.60;;
60969;SDS011;46841;48.938;9.502;2023-04-06T10:26:42;14.03;;;9.07;;
60969;SDS011;46841;48.938;9.502;2023-04-06T10:29:07;16.73;;;8.65;;
60969;SDS011;46841;48.938;9.502;2023-04-06T10:31:38;15.18;;;8.52;;
60969;SDS011;46841;48.938;9.502;2023-04-06T10:34:04;15.38;;;8.90;;
60969;SDS011;46841;48.938;9.502;2023-04-06T10:36:33;14.30;;;9.10;;
60969;SDS011;46841;48.938;9.502;2023-04-06T10:38:59;14.73;;;9.10;;
60969;SDS011;46841;48.938;9.502;2023-04-06T10:41:32;15.27;;;9.10;;
60969;SDS011;46841;48.938;9.502;2023-04-06T10:43:57;14.50;;;9.52;;
60969;SDS011;46841;48.938;9.502;2023-04-06T10:46:27;15.23;;;9.05;;
60969;SDS011;46841;48.938;9.502;2023-04-06T10:48:52;19.80;;;9.80;;
60969;SDS011;46841;48.938;9.502;2023-04-06T10:51:18;13.50;;;9.15;;
60969;SDS011;46841;48.938;9.502;2023-04-06T10:53:45;14.60;;;10.15;;
60969;SDS011;46841;48.938;9.502;2023-04-06T10:56:12;16.27;;;9.90;;
60969;SDS011;46841;48.938;9.502;2023-04-06T10:58:38;16.17;;;9.88;;
60969;SDS011;46841;48.938;9.502;2023-04-06T11:01:03;13.63;;;9.40;;
60969;SDS011;46841;48.938;9.502;2023-04-06T11:03:28;16.00;;;9.68;;
60969;SDS011;46841;48.938;9.502;2023-04-06T11:05:54;16.23;;;9.23;;
60969;SDS011;46841;48.938;9.502;2023-04-06T11:10:51;14.75;;;8.52;;
60969;SDS011;46841;48.938;9.502;2023-04-06T11:13:16;14.90;;;9.75;;
60969;SDS011;46841;48.938;9.502;2023-04-06T11:15:42;15.13;;;8.93;;
60969;SDS011;46841;48.938;9.502;2023-04-06T11:18:07;13.02;;;8.18;;
60969;SDS011;46841;48.938;9.502;2023-04-06T11:20:33;19.75;;;8.98;;
60969;SDS011;46841;48.938;9.502;2023-04-06T11:22:58;15.52;;;9.13;;
60969;SDS011;46841;48.938;9.502;2023-04-06T11:25:24;13.95;;;8.98;;
60969;SDS011;46841;48.938;9.502;2023-04-06T11:27:51;17.05;;;9.00;;
60969;SDS011;46841;48.938;9.502;2023-04-06T11:30:17;13.82;;;8.65;;
60969;SDS011;46841;48.938;9.502;2023-04-06T11:32:43;12.57;;;8.02;;
60969;SDS011;46841;48.938;9.502;2023-04-06T11:35:12;12.75;;;8.00;;
60969;SDS011;46841;48.938;9.502;2023-04-06T11:37:44;12.60;;;7.70;;
60969;SDS011;46841;48.938;9.502;2023-04-06T11:40:09;13.05;;;7.85;;
60969;SDS011;46841;48.938;9.502;2023-04-06T11:42:35;12.48;;;8.10;;
60969;SDS011;46841;48.938;9.502;2023-04-06T11:45:00;11.23;;;7.30;;
60969;SDS011;46841;48.938;9.502;2023-04-06T11:47:33;15.48;;;8.05;;
60969;SDS011;46841;48.938;9.502;2023-04-06T11:50:11;14.13;;;8.63;;
60969;SDS011;46841;48.938;9.502;2023-04-06T11:52:37;12.98;;;8.48;;
60969;SDS011;46841;48.938;9.502;2023-04-06T11:55:10;11.70;;;8.18;;
60969;SDS011;46841;48.938;9.502;2023-04-06T11:57:35;11.20;;;8.15;;
60969;SDS011;46841;48.938;9.502;2023-04-06T12:00:01;12.70;;;8.07;;
60969;SDS011;46841;48.938;9.502;2023-04-06T12:02:26;10.33;;;8.20;;
60969;SDS011;46841;48.938;9.502;2023-04-06T12:04:52;12.50;;;7.70;;
60969;SDS011;46841;48.938;9.502;2023-04-06T12:07:17;10.87;;;7.70;;
60969;SDS011;46841;48.938;9.502;2023-04-06T12:09:42;14.80;;;7.73;;
60969;SDS011;46841;48.938;9.502;2023-04-06T12:12:08;10.40;;;7.67;;
60969;SDS011;46841;48.938;9.502;2023-04-06T12:14:33;14.13;;;8.30;;
60969;SDS011;46841;48.938;9.502;2023-04-06T12:16:58;10.57;;;7.33;;
60969;SDS011;46841;48.938;9.502;2023-04-06T12:19:24;14.03;;;7.77;;
60969;SDS011;46841;48.938;9.502;2023-04-06T12:21:51;11.10;;;7.22;;
60969;SDS011;46841;48.938;9.502;2023-04-06T12:24:17;10.45;;;6.65;;
60969;SDS011;46841;48.938;9.502;2023-04-06T12:26:42;11.33;;;6.20;;
60969;SDS011;46841;48.938;9.502;2023-04-06T12:29:08;7.67;;;6.13;;
60969;SDS011;46841;48.938;9.502;2023-04-06T12:31:36;8.10;;;5.83;;
60969;SDS011;46841;48.938;9.502;2023-04-06T12:34:03;9.30;;;6.47;;
60969;SDS011;46841;48.938;9.502;2023-04-06T12:36:29;8.73;;;6.47;;
60969;SDS011;46841;48.938;9.502;2023-04-06T12:38:54;9.50;;;6.70;;
60969;SDS011;46841;48.938;9.502;2023-04-06T12:41:20;10.50;;;7.30;;
60969;SDS011;46841;48.938;9.502;2023-04-06T12:43:46;12.50;;;6.43;;
60969;SDS011;46841;48.938;9.502;2023-04-06T12:46:11;8.53;;;6.23;;
60969;SDS011;46841;48.938;9.502;2023-04-06T12:48:37;10.43;;;6.77;;
60969;SDS011;46841;48.938;9.502;2023-04-06T12:51:06;10.30;;;6.93;;
60969;SDS011;46841;48.938;9.502;2023-04-06T12:53:31;9.25;;;6.55;;
60969;SDS011;46841;48.938;9.502;2023-04-06T12:55:57;9.00;;;6.57;;
60969;SDS011;46841;48.938;9.502;2023-04-06T12:58:23;8.47;;;6.73;;
60969;SDS011;46841;48.938;9.502;2023-04-06T13:00:49;11.57;;;6.87;;
60969;SDS011;46841;48.938;9.502;2023-04-06T13:03:15;9.45;;;7.03;;
60969;SDS011;46841;48.938;9.502;2023-04-06T13:05:47;11.57;;;6.70;;
60969;SDS011;46841;48.938;9.502;2023-04-06T13:08:13;10.05;;;6.95;;
60969;SDS011;46841;48.938;9.502;2023-04-06T13:10:43;13.98;;;7.05;;
60969;SDS011;46841;48.938;9.502;2023-04-06T13:13:08;10.07;;;7.05;;
60969;SDS011;46841;48.938;9.502;2023-04-06T13:15:33;9.60;;;6.40;;
60969;SDS011;46841;48.938;9.502;2023-04-06T13:18:01;12.10;;;6.88;;
60969;SDS011;46841;48.938;9.502;2023-04-06T13:20:26;11.17;;;7.13;;
60969;SDS011;46841;48.938;9.502;2023-04-06T13:22:52;11.48;;;7.22;;
60969;SDS011;46841;48.938;9.502;2023-04-06T13:25:18;10.33;;;6.80;;
60969;SDS011;46841;48.938;9.502;2023-04-06T13:27:43;9.97;;;7.10;;
60969;SDS011;46841;48.938;9.502;2023-04-06T13:30:11;10.00;;;6.72;;
60969;SDS011;46841;48.938;9.502;2023-04-06T13:32:37;9.30;;;6.37;;
60969;SDS011;46841;48.938;9.502;2023-04-06T13:35:02;10.13;;;6.03;;
60969;SDS011;46841;48.938;9.502;2023-04-06T13:37:28;8.05;;;5.85;;
60969;SDS011;46841;48.938;9.502;2023-04-06T13:39:54;10.00;;;6.60;;
60969;SDS011;46841;48.938;9.502;2023-04-06T13:42:20;10.80;;;6.40;;
60969;SDS011;46841;48.938;9.502;2023-04-06T13:44:45;9.20;;;6.33;;
60969;SDS011;46841;48.938;9.502;2023-04-06T13:47:12;8.18;;;5.80;;
60969;SDS011;46841;48.938;9.502;2023-04-06T13:49:37;9.53;;;6.13;;
60969;SDS011;46841;48.938;9.502;2023-04-06T13:52:03;9.43;;;5.87;;
60969;SDS011;46841;48.938;9.502;2023-04-06T13:54:28;8.10;;;5.53;;
60969;SDS011;46841;48.938;9.502;2023-04-06T13:56:53;9.23;;;6.50;;
60969;SDS011;46841;48.938;9.502;2023-04-06T13:59:19;9.23;;;6.13;;
60969;SDS011;46841;48.938;9.502;2023-04-06T14:04:10;8.77;;;6.10;;
60969;SDS011;46841;48.938;9.502;2023-04-06T14:06:36;8.97;;;6.20;;
60969;SDS011;46841;48.938;9.502;2023-04-06T14:09:02;8.97;;;6.43;;
60969;SDS011;46841;48.938;9.502;2023-04-06T14:11:27;9.40;;;6.53;;
60969;SDS011;46841;48.938;9.502;2023-04-06T14:13:52;7.80;;;5.53;;
60969;SDS011;46841;48.938;9.502;2023-04-06T14:16:18;11.63;;;6.77;;
60969;SDS011;46841;48.938;9.502;2023-04-06T14:18:44;11.68;;;5.88;;
60969;SDS011;46841;48.938;9.502;2023-04-06T14:21:10;14.57;;;6.43;;
60969;SDS011;46841;48.938;9.502;2023-04-06T14:23:35;9.70;;;6.30;;
60969;SDS011;46841;48.938;9.502;2023-04-06T14:26:02;9.20;;;6.05;;
60969;SDS011;46841;48.938;9.502;2023-04-06T14:28:28;11.15;;;6.63;;
60969;SDS011;46841;48.938;9.502;2023-04-06T14:30:54;9.83;;;6.50;;
60969;SDS011;46841;48.938;9.502;2023-04-06T14:33:19;9.83;;;6.57;;
60969;SDS011;46841;48.938;9.502;2023-04-06T14:35:45;13.30;;;5.97;;
60969;SDS011;46841;48.938;9.502;2023-04-06T14:38:10;10.17;;;6.47;;
60969;SDS011;46841;48.938;9.502;2023-04-06T14:40:35;12.73;;;6.07;;
60969;SDS011;46841;48.938;9.502;2023-04-06T14:43:02;12.00;;;6.20;;
60969;SDS011;46841;48.938;9.502;2023-04-06T14:45:27;9.55;;;6.07;;